Time;durP1;ratioP1;P1;durP2;ratioP2;P2;SDS_P1;SDS_P2;PMS_P1;PMS_P2;Temp;Humidity;BMP_temperature;BMP_pressure;BME280_temperature;BME280_humidity;BME280_pressure;Samples;Min_cycle;Max_cycle;Signal;HPM_P1;HPM_P2
2023/05/06 00:00:13;;;;;;;2.70;1.10;;;;;;;12.26;93.68;101020.14;105793;1254;63990;-86
2023/05/06 00:02:43;;;;;;;2.10;1.80;;;;;;;12.22;93.56;101024.52;105826;1254;73592;-87
2023/05/06 00:05:10;;;;;;;2.30;1.90;;;;;;;12.17;93.37;101030.30;105715;1254;61150;-86
2023/05/06 00:07:38;;;;;;;1.30;1.20;;;;;;;12.10;93.27;101032.13;105828;1254;61236;-87
2023/05/06 00:10:05;;;;;;;2.50;1.50;;;;;;;12.03;93.33;101031.62;105778;1257;74803;-86
2023/05/06 00:12:32;;;;;;;4.20;1.40;;;;;;;11.98;93.29;101032.10;105647;1254;63552;-89
2023/05/06 00:14:59;;;;;;;4.00;1.50;;;;;;;11.94;93.40;101034.64;105738;1258;72651;-86
2023/05/06 00:17:26;;;;;;;3.10;1.20;;;;;;;11.90;93.32;101035.55;105733;1257;61349;-86
2023/05/06 00:19:54;;;;;;;1.40;1.30;;;;;;;11.87;93.31;101038.70;105736;1254;60346;-87
2023/05/06 00:22:22;;;;;;;3.30;1.20;;;;;;;11.84;93.26;101042.71;105788;1254;73539;-86
2023/05/06 00:24:49;;;;;;;3.00;1.50;;;;;;;11.80;93.21;101043.29;105647;1258;64780;-89
2023/05/06 00:27:16;;;;;;;8.40;1.50;;;;;;;11.77;93.00;101047.86;105722;1256;73701;-87
2023/05/06 00:29:42;;;;;;;1.90;1.60;;;;;;;11.72;92.87;101053.58;105764;1254;63513;-87
2023/05/06 00:32:09;;;;;;;2.20;1.10;;;;;;;11.67;92.69;101056.16;105813;1254;60533;-89
2023/05/06 00:34:36;;;;;;;2.30;1.30;;;;;;;11.62;92.67;101057.14;105830;1254;73714;-84
2023/05/06 00:37:03;;;;;;;1.40;1.30;;;;;;;11.58;92.85;101056.29;105764;1254;63234;-88
2023/05/06 00:39:30;;;;;;;4.70;1.40;;;;;;;11.55;92.73;101053.13;105679;1253;72464;-88
2023/05/06 00:42:01;;;;;;;2.60;1.30;;;;;;;11.53;92.81;101047.45;105790;1254;60905;-85
2023/05/06 00:44:28;;;;;;;1.30;1.20;;;;;;;11.51;92.55;101046.89;105801;1253;61349;-84
2023/05/06 00:46:56;;;;;;;2.50;1.20;;;;;;;11.49;92.41;101044.36;105708;1254;73463;-85
2023/05/06 00:49:23;;;;;;;1.70;1.10;;;;;;;11.47;92.39;101044.12;105683;1258;64692;-85
2023/05/06 00:51:51;;;;;;;5.10;1.10;;;;;;;11.45;92.17;101044.27;105725;1253;73510;-84
2023/05/06 00:54:18;;;;;;;3.00;1.40;;;;;;;11.41;92.04;101048.50;105609;1258;61731;-87
2023/05/06 00:56:44;;;;;;;1.80;1.30;;;;;;;11.37;92.15;101053.95;105589;1253;61009;-86
2023/05/06 00:59:11;;;;;;;2.20;1.40;;;;;;;11.35;92.41;101056.05;105597;1254;74216;-84
2023/05/06 01:01:39;;;;;;;1.60;1.10;;;;;;;11.34;92.51;101048.90;106231;1257;64764;-87
2023/05/06 01:04:07;;;;;;;1.30;1.10;;;;;;;11.35;92.72;101044.10;106202;1254;73718;-85
2023/05/06 01:06:43;;;;;;;3.50;1.40;;;;;;;11.36;92.78;101040.38;105967;1257;61407;-87
2023/05/06 01:09:18;;;;;;;4.10;1.90;;;;;;;11.35;92.77;101042.34;105704;1254;61177;-87
2023/05/06 01:11:56;;;;;;;1.90;1.30;;;;;;;11.35;92.82;101044.48;105694;1258;75144;-86
2023/05/06 01:14:48;;;;;;;2.30;2.10;;;;;;;11.35;92.92;101042.35;105734;1254;64289;-86
2023/05/06 01:17:17;;;;;;;3.30;1.90;;;;;;;11.35;92.99;101046.05;105713;1254;72278;-87
2023/05/06 01:19:52;;;;;;;2.00;1.50;;;;;;;11.36;92.95;101051.03;105799;1257;61650;-86
2023/05/06 01:22:19;;;;;;;1.60;1.50;;;;;;;11.36;93.23;101047.76;105801;1254;61133;-87
2023/05/06 01:24:46;;;;;;;4.80;1.60;;;;;;;11.36;93.35;101046.48;105717;1257;74700;-87
2023/05/06 01:27:15;;;;;;;2.80;2.10;;;;;;;11.38;93.37;101044.97;105776;1256;63765;-88
2023/05/06 01:29:44;;;;;;;6.60;1.70;;;;;;;11.40;93.30;101049.45;105850;1253;73393;-88
2023/05/06 01:32:17;;;;;;;3.30;1.70;;;;;;;11.42;93.51;101053.00;106120;1254;61331;-83
2023/05/06 01:35:23;;;;;;;2.90;1.50;;;;;;;11.45;93.37;101056.86;107286;1254;60431;-83
2023/05/06 01:38:12;;;;;;;3.50;1.40;;;;;;;11.47;93.45;101056.74;106261;1254;73980;-87
2023/05/06 01:40:40;;;;;;;2.20;2.00;;;;;;;11.49;93.44;101046.98;105798;1258;65009;-89
2023/05/06 01:43:07;;;;;;;4.00;1.80;;;;;;;11.51;93.25;101044.13;105681;1257;72516;-85
2023/05/06 01:45:34;;;;;;;4.90;1.90;;;;;;;11.50;93.22;101044.14;106187;1254;61937;-88
2023/05/06 01:48:03;;;;;;;3.60;1.30;;;;;;;11.49;92.93;101047.58;105901;1253;61120;-90
2023/05/06 01:50:30;;;;;;;2.10;1.50;;;;;;;11.46;92.92;101049.80;105737;1254;73885;-89
2023/05/06 01:53:00;;;;;;;2.10;1.60;;;;;;;11.44;92.66;101054.66;105695;1258;64528;-88
2023/05/06 01:55:28;;;;;;;4.10;1.50;;;;;;;11.41;92.33;101052.20;108614;1254;72742;-83
2023/05/06 01:57:57;;;;;;;3.60;1.70;;;;;;;11.39;92.38;101051.79;106438;1254;60347;-85
2023/05/06 02:00:25;;;;;;;2.50;1.30;;;;;;;11.38;92.10;101060.56;105856;1254;61530;-85
2023/05/06 02:02:52;;;;;;;3.90;1.50;;;;;;;11.34;91.66;101070.57;105798;1256;74866;-85
2023/05/06 02:05:19;;;;;;;3.10;1.30;;;;;;;11.32;91.62;101076.69;105705;1254;66215;-87
2023/05/06 02:07:47;;;;;;;2.50;1.20;;;;;;;11.31;91.34;101076.40;105743;1254;73653;-86
2023/05/06 02:10:14;;;;;;;2.90;1.60;;;;;;;11.28;91.22;101074.10;105663;1253;62805;-85
2023/05/06 02:12:45;;;;;;;1.70;1.60;;;;;;;11.25;91.24;101070.40;105704;1254;61530;-88
2023/05/06 02:15:12;;;;;;;2.00;1.60;;;;;;;11.26;91.47;101068.80;105711;1254;73577;-84
2023/05/06 02:17:39;;;;;;;6.00;1.70;;;;;;;11.27;91.25;101068.73;105698;1254;64377;-86
2023/05/06 02:20:08;;;;;;;2.00;1.60;;;;;;;11.30;91.13;101069.60;105729;1254;73699;-87
2023/05/06 02:22:36;;;;;;;4.80;1.60;;;;;;;11.34;91.03;101072.19;105757;1254;61072;-89
2023/05/06 02:25:03;;;;;;;4.20;1.60;;;;;;;11.36;90.81;101076.95;105666;1258;61315;-87
2023/05/06 02:27:30;;;;;;;2.30;1.70;;;;;;;11.35;90.62;101079.10;106732;1254;74709;-88
2023/05/06 02:29:57;;;;;;;2.50;1.20;;;;;;;11.33;90.51;101081.33;105734;1255;63706;-87
2023/05/06 02:32:24;;;;;;;1.30;1.20;;;;;;;11.29;90.21;101076.14;105902;1256;72665;-89
2023/05/06 02:34:53;;;;;;;1.60;1.50;;;;;;;11.25;90.31;101077.08;105861;1254;63006;-87
2023/05/06 02:40:15;;;;;;;4.20;1.40;;;;;;;11.19;90.62;101083.50;102462;1293;615614;-86
2023/05/06 02:42:42;;;;;;;1.20;1.10;;;;;;;11.17;90.92;101085.02;105210;1266;60276;-85
2023/05/06 02:45:12;;;;;;;2.70;2.00;;;;;;;11.19;90.86;101082.10;105454;1266;61654;-86
2023/05/06 02:47:39;;;;;;;2.20;1.40;;;;;;;11.21;90.77;101078.53;105968;1266;73130;-86
2023/05/06 02:50:07;;;;;;;3.30;2.30;;;;;;;11.18;90.32;101081.27;107805;1266;64592;-84
2023/05/06 02:52:35;;;;;;;2.00;1.80;;;;;;;11.11;90.15;101082.53;106918;1265;763445;-84
2023/05/06 02:55:02;;;;;;;1.60;1.50;;;;;;;11.08;90.30;101085.88;106600;1264;61903;-86
2023/05/06 02:57:30;;;;;;;2.30;1.40;;;;;;;11.05;90.19;101083.05;105321;1267;60050;-87
2023/05/06 02:59:57;;;;;;;2.30;1.40;;;;;;;11.03;90.19;101084.73;105302;1260;73302;-85
2023/05/06 03:02:24;;;;;;;1.70;1.50;;;;;;;11.03;90.26;101086.67;105357;1260;64788;-89
2023/05/06 03:04:51;;;;;;;2.80;1.60;;;;;;;11.02;90.10;101087.75;105562;1259;73037;-87
2023/05/06 03:07:18;;;;;;;2.70;1.30;;;;;;;11.01;89.80;101092.73;105475;1262;61206;-88
2023/05/06 03:09:45;;;;;;;2.30;1.40;;;;;;;10.98;89.56;101095.66;105551;1257;61351;-89
2023/05/06 03:12:12;;;;;;;2.90;1.30;;;;;;;10.96;89.41;101102.59;105650;1259;72980;-87
2023/05/06 03:14:39;;;;;;;2.00;1.20;;;;;;;10.95;89.53;101108.95;105743;1259;63901;-85
2023/05/06 03:17:06;;;;;;;5.40;1.60;;;;;;;10.95;89.49;101115.08;105604;1259;73204;-83
2023/05/06 03:19:35;;;;;;;3.70;1.40;;;;;;;10.95;89.32;101110.54;105542;1261;62774;-87
2023/05/06 03:22:02;;;;;;;3.00;1.20;;;;;;;10.94;89.35;101114.80;105747;1259;59942;-84
2023/05/06 03:24:30;;;;;;;1.80;1.10;;;;;;;10.93;89.30;101117.27;105646;1259;72805;-86
2023/05/06 03:26:57;;;;;;;1.30;1.00;;;;;;;10.95;89.09;101119.13;105794;1256;63512;-85
2023/05/06 03:29:25;;;;;;;3.00;1.50;;;;;;;10.96;89.22;101124.81;105747;1257;73697;-85
2023/05/06 03:31:56;;;;;;;3.80;1.90;;;;;;;11.01;88.98;101133.67;105808;1257;60037;-84
2023/05/06 03:34:23;;;;;;;1.50;1.40;;;;;;;11.05;88.65;101136.77;105920;1257;61311;-86
2023/05/06 03:36:50;;;;;;;2.00;1.30;;;;;;;11.10;88.37;101139.50;105824;1257;74212;-84
2023/05/06 03:39:17;;;;;;;1.80;1.20;;;;;;;11.14;88.29;101138.40;105655;1257;63788;-87
2023/05/06 03:41:45;;;;;;;3.70;1.40;;;;;;;11.18;87.79;101143.77;105541;1256;72498;-87
2023/05/06 03:44:11;;;;;;;8.90;1.40;;;;;;;11.17;87.61;101146.08;105540;1257;60042;-87
2023/05/06 03:46:40;;;;;;;2.10;1.70;;;;;;;11.17;87.14;101147.52;105547;1259;60182;-86
2023/05/06 03:49:07;;;;;;;7.60;1.90;;;;;;;11.15;87.13;101146.71;105640;1259;73622;-85
2023/05/06 03:51:34;;;;;;;2.60;1.60;;;;;;;11.13;86.65;101149.84;105718;1259;65135;-87
2023/05/06 03:54:02;;;;;;;3.00;1.70;;;;;;;11.09;86.97;101153.36;105707;1257;73750;-85
2023/05/06 03:56:30;;;;;;;2.80;1.50;;;;;;;11.09;86.87;101155.11;105611;1258;59760;-86
2023/05/06 03:58:58;;;;;;;2.80;1.70;;;;;;;11.10;86.92;101160.47;105517;1259;61012;-86
2023/05/06 04:01:25;;;;;;;3.80;1.40;;;;;;;11.12;86.71;101159.34;105586;1259;72926;-86
2023/05/06 04:03:53;;;;;;;5.10;1.60;;;;;;;11.12;86.70;101162.98;105577;1257;64405;-88
2023/05/06 04:06:20;;;;;;;3.40;1.60;;;;;;;11.12;86.53;101164.05;105634;1257;71509;-86
2023/05/06 04:08:50;;;;;;;2.20;2.00;;;;;;;11.12;86.52;101166.86;105554;1257;61098;-88
2023/05/06 04:11:17;;;;;;;2.50;1.50;;;;;;;11.10;86.34;101165.20;105536;1261;61683;-89
2023/05/06 04:13:45;;;;;;;5.00;1.90;;;;;;;11.10;86.37;101164.52;105567;1257;73945;-87
2023/05/06 04:16:14;;;;;;;2.70;1.50;;;;;;;11.20;86.75;101169.23;105537;1257;63828;-90
2023/05/06 04:18:44;;;;;;;4.50;1.50;;;;;;;11.42;86.57;101165.04;105599;1257;72608;-89
2023/05/06 04:21:14;;;;;;;3.30;1.10;;;;;;;11.74;85.67;101164.50;105672;1259;62246;-90
2023/05/06 04:23:43;;;;;;;4.60;1.50;;;;;;;12.02;84.63;101167.34;105525;1259;60306;-87
2023/05/06 04:26:12;;;;;;;3.60;1.40;;;;;;;12.32;84.17;101168.61;105585;1257;73928;-86
2023/05/06 04:28:40;;;;;;;1.20;1.10;;;;;;;12.71;83.08;101162.92;105724;1259;63581;-87
2023/05/06 04:31:07;;;;;;;2.40;1.40;;;;;;;13.16;81.66;101167.42;105960;1256;72669;-87
2023/05/06 04:33:42;;;;;;;1.90;1.20;;;;;;;13.58;80.22;101166.73;105796;1258;60636;-89
2023/05/06 04:36:12;;;;;;;2.70;1.50;;;;;;;13.82;78.57;101170.09;105819;1258;59733;-86
2023/05/06 04:38:42;;;;;;;4.50;1.80;;;;;;;13.94;77.61;101173.03;105762;1259;73895;-87
2023/05/06 04:41:10;;;;;;;4.40;1.20;;;;;;;14.00;77.00;101174.05;105800;1253;63811;-86
2023/05/06 04:43:37;;;;;;;2.60;1.30;;;;;;;14.07;76.58;101174.63;105811;1257;73500;-88
2023/05/06 04:46:09;;;;;;;7.30;1.80;;;;;;;14.09;75.71;101180.83;105793;1259;62343;-89
2023/05/06 04:48:37;;;;;;;1.80;1.40;;;;;;;14.08;75.65;101175.96;105691;1259;60352;-87
2023/05/06 04:51:05;;;;;;;1.80;1.10;;;;;;;14.17;75.08;101174.72;105786;1254;73960;-87
2023/05/06 04:53:32;;;;;;;2.10;1.10;;;;;;;14.28;74.33;101178.84;105675;1259;65116;-88
2023/05/06 04:55:59;;;;;;;2.80;1.00;;;;;;;14.46;73.84;101183.30;105786;1253;72603;-89
2023/05/06 04:58:27;;;;;;;1.20;1.10;;;;;;;14.73;73.39;101185.54;106395;1254;60602;-89
2023/05/06 05:00:55;;;;;;;4.00;1.10;;;;;;;15.11;72.85;101186.06;106331;1258;60299;-91
2023/05/06 05:03:24;;;;;;;7.50;1.40;;;;;;;15.60;69.89;101191.76;106344;1258;73369;-86
2023/05/06 05:05:52;;;;;;;2.20;0.70;;;;;;;16.11;65.94;101191.47;106193;1254;63555;-88
2023/05/06 05:08:20;;;;;;;5.80;1.10;;;;;;;16.64;63.86;101193.10;106863;1258;74264;-88
2023/05/06 05:10:48;;;;;;;5.30;1.20;;;;;;;17.21;57.78;101190.65;106218;1253;59640;-87
2023/05/06 05:13:18;;;;;;;36.10;24.60;;;;;;;17.76;52.94;101187.52;106124;1253;61226;-90
2023/05/06 05:15:45;;;;;;;9.40;3.40;;;;;;;18.21;49.76;101184.73;106157;1253;72489;-87
2023/05/06 05:18:13;;;;;;;7.00;2.50;;;;;;;18.62;48.09;101181.60;106992;1254;62804;-87
2023/05/06 05:20:40;;;;;;;1.70;1.00;;;;;;;19.04;47.36;101183.61;106062;1258;73726;-89
2023/05/06 05:23:08;;;;;;;2.20;1.30;;;;;;;19.46;44.74;101180.27;106150;1253;60166;-91
2023/05/06 05:25:37;;;;;;;2.20;1.20;;;;;;;19.73;43.31;101180.56;105979;1259;60065;-87
2023/05/06 05:28:03;;;;;;;2.80;0.90;;;;;;;19.98;42.37;101185.04;105914;1256;73838;-86
2023/05/06 05:30:31;;;;;;;2.30;0.90;;;;;;;20.27;41.95;101182.16;106217;1258;63707;-89
2023/05/06 05:32:58;;;;;;;12.90;3.10;;;;;;;20.52;41.11;101182.39;106361;1259;73992;-85
2023/05/06 05:35:26;;;;;;;3.60;0.80;;;;;;;20.74;40.24;101191.04;106237;1254;60077;-91
2023/05/06 05:37:53;;;;;;;2.40;0.90;;;;;;;20.91;39.40;101189.05;106096;1256;60098;-88
2023/05/06 05:40:21;;;;;;;3.30;0.70;;;;;;;21.04;38.97;101186.20;106040;1253;73958;-89
2023/05/06 05:42:51;;;;;;;1.40;1.00;;;;;;;21.20;38.80;101185.91;106032;1257;63563;-89
2023/05/06 05:45:23;;;;;;;3.80;1.60;;;;;;;21.55;38.78;101184.20;106577;1254;72418;-85
2023/05/06 05:47:50;;;;;;;4.40;0.70;;;;;;;21.93;37.33;101188.83;107442;1253;60376;-89
2023/05/06 05:50:17;;;;;;;5.70;0.90;;;;;;;22.23;36.76;101189.92;106989;1253;61857;-87
2023/05/06 05:52:45;;;;;;;4.10;1.00;;;;;;;22.50;35.23;101191.33;106405;1253;74067;-89
2023/05/06 05:55:12;;;;;;;4.60;0.90;;;;;;;22.62;34.53;101187.63;106269;1254;63970;-87
2023/05/06 05:57:41;;;;;;;5.10;1.20;;;;;;;22.67;34.56;101190.00;106113;1257;72688;-90
2023/05/06 06:00:08;;;;;;;3.10;0.50;;;;;;;22.61;33.99;101188.41;106065;1256;61938;-88
2023/05/06 06:02:43;;;;;;;1.90;1.00;;;;;;;22.34;34.51;101189.39;106278;1254;61034;-89
2023/05/06 06:05:11;;;;;;;3.40;1.30;;;;;;;22.18;35.38;101191.48;106182;1255;72971;-86
2023/05/06 06:07:38;;;;;;;1.80;1.00;;;;;;;22.35;35.72;101190.13;106055;1253;64672;-90
2023/05/06 06:10:06;;;;;;;72.20;52.90;;;;;;;22.61;35.05;101191.33;106416;1257;73649;-90
2023/05/06 06:12:33;;;;;;;22.00;16.60;;;;;;;22.85;33.66;101193.79;106174;1254;61963;-87
2023/05/06 06:15:01;;;;;;;55.50;44.20;;;;;;;22.92;33.21;101195.77;106128;1256;60087;-88
2023/05/06 06:17:30;;;;;;;3.80;2.30;;;;;;;22.85;33.43;101193.81;106046;1253;74180;-88
2023/05/06 06:19:57;;;;;;;1.80;1.10;;;;;;;22.92;33.80;101200.95;105833;1259;64787;-87
2023/05/06 06:22:25;;;;;;;3.90;0.80;;;;;;;23.24;33.15;101201.39;106121;1254;72620;-91
2023/05/06 06:24:53;;;;;;;7.90;2.30;;;;;;;23.67;32.10;101201.46;106045;1259;61972;-89
2023/05/06 06:27:20;;;;;;;1.20;0.50;;;;;;;23.93;30.83;101202.02;106026;1255;61251;-89
2023/05/06 06:29:48;;;;;;;4.10;0.70;;;;;;;23.95;30.51;101201.00;106154;1256;74184;-91
2023/05/06 06:32:15;;;;;;;2.10;0.90;;;;;;;24.00;29.94;101199.43;105740;1254;63693;-89
2023/05/06 06:34:42;;;;;;;2.60;2.40;;;;;;;24.03;29.66;101207.70;105841;1257;73770;-88
2023/05/06 06:37:11;;;;;;;18.60;12.10;;;;;;;24.06;29.59;101211.96;105971;1256;61029;-88
2023/05/06 06:39:38;;;;;;;5.00;1.80;;;;;;;24.20;29.10;101212.47;105868;1257;61177;-89
2023/05/06 06:42:08;;;;;;;3.90;1.00;;;;;;;24.29;29.34;101211.64;105822;1256;73660;-88
2023/05/06 06:44:38;;;;;;;5.30;0.90;;;;;;;24.52;28.94;101216.88;105952;1257;64812;-90
2023/05/06 06:47:05;;;;;;;2.40;0.80;;;;;;;24.76;28.47;101219.92;105821;1254;73114;-87
2023/05/06 06:49:32;;;;;;;3.20;1.10;;;;;;;24.98;28.47;101223.59;105910;1257;61123;-89
2023/05/06 06:51:59;;;;;;;7.10;1.00;;;;;;;25.21;27.91;101214.41;105919;1254;61456;-90
2023/05/06 06:54:26;;;;;;;2.90;1.00;;;;;;;25.31;27.43;101217.56;105882;1254;73919;-90
2023/05/06 06:56:55;;;;;;;3.60;0.80;;;;;;;25.34;26.89;101221.71;105888;1254;63916;-87
2023/05/06 06:59:22;;;;;;;2.60;0.80;;;;;;;25.35;26.41;101218.76;106195;1254;73605;-86
2023/05/06 07:01:49;;;;;;;10.30;1.80;;;;;;;25.40;25.75;101221.15;106010;1259;60567;-86
2023/05/06 07:04:16;;;;;;;4.70;1.20;;;;;;;25.32;24.63;101219.73;106265;1256;61224;-91
2023/05/06 07:06:43;;;;;;;2.90;1.00;;;;;;;25.06;25.26;101227.20;106049;1254;74901;-89
2023/05/06 07:09:11;;;;;;;1.80;0.80;;;;;;;24.88;25.29;101228.57;106062;1259;64544;-88
2023/05/06 07:11:38;;;;;;;13.70;11.00;;;;;;;24.86;25.73;101232.02;106024;1255;72625;-90
2023/05/06 07:14:04;;;;;;;6.80;5.30;;;;;;;24.96;25.80;101229.84;106473;1259;60505;-84
2023/05/06 07:16:32;;;;;;;11.00;4.90;;;;;;;24.89;25.40;101225.29;107569;1253;61200;-88
2023/05/06 07:19:00;;;;;;;2.90;1.30;;;;;;;24.77;25.64;101232.12;106496;1254;72596;-86
2023/05/06 07:21:27;;;;;;;2.50;1.20;;;;;;;24.85;25.58;101230.18;105978;1257;65243;-88
2023/05/06 07:23:54;;;;;;;4.40;0.80;;;;;;;25.19;25.20;101231.96;105970;1256;72937;-88
2023/05/06 07:26:21;;;;;;;3.80;1.00;;;;;;;25.55;25.14;101232.02;105976;1256;61378;-86
2023/05/06 07:28:47;;;;;;;3.00;0.70;;;;;;;25.89;24.74;101242.80;105889;1259;61508;-87
2023/05/06 07:31:19;;;;;;;2.20;1.20;;;;;;;26.21;25.25;101236.81;106381;1256;73765;-85
2023/05/06 07:33:46;;;;;;;3.90;0.50;;;;;;;26.48;24.37;101237.34;106310;1257;63764;-87
2023/05/06 07:36:13;;;;;;;1.80;0.60;;;;;;;26.59;24.39;101239.52;107055;1253;73653;-86
2023/05/06 07:38:41;;;;;;;4.00;1.90;;;;;;;26.76;24.75;101241.98;108767;1253;61400;-84
2023/05/06 07:41:07;;;;;;;6.20;1.10;;;;;;;26.89;23.81;101242.23;108089;1253;60617;-83
2023/05/06 07:43:35;;;;;;;6.30;1.20;;;;;;;26.69;23.74;101236.94;106392;1257;73634;-87
2023/05/06 07:46:02;;;;;;;3.60;0.50;;;;;;;26.51;24.08;101237.05;105981;1257;64272;-89
2023/05/06 07:48:29;;;;;;;5.20;1.50;;;;;;;26.26;23.86;101231.20;106014;1256;73662;-89
2023/05/06 07:50:56;;;;;;;6.60;0.90;;;;;;;25.93;24.26;101237.02;105964;1257;61712;-88
2023/05/06 07:53:23;;;;;;;1.10;0.70;;;;;;;25.82;24.46;101236.95;106163;1257;60913;-88
2023/05/06 07:55:51;;;;;;;1.20;0.80;;;;;;;25.77;24.20;101234.36;106225;1257;74165;-87
2023/05/06 07:58:18;;;;;;;2.40;1.40;;;;;;;25.70;24.53;101244.11;106134;1257;64620;-88
2023/05/06 08:00:46;;;;;;;3.80;0.90;;;;;;;25.70;24.72;101245.85;105900;1259;72844;-85
2023/05/06 08:03:13;;;;;;;3.20;1.80;;;;;;;25.91;24.85;101245.98;106085;1256;61337;-86
2023/05/06 08:05:40;;;;;;;2.60;2.20;;;;;;;26.13;25.09;101245.41;106099;1254;60433;-88
2023/05/06 08:08:07;;;;;;;3.30;1.00;;;;;;;26.34;24.35;101245.62;105984;1257;74175;-87
2023/05/06 08:10:34;;;;;;;1.50;0.90;;;;;;;26.50;24.32;101248.01;105818;1257;64321;-87
2023/05/06 08:13:02;;;;;;;2.60;2.10;;;;;;;26.69;24.44;101242.79;105901;1257;73435;-87
2023/05/06 08:15:29;;;;;;;13.00;11.10;;;;;;;26.78;23.92;101245.00;105940;1257;60850;-87
2023/05/06 08:17:56;;;;;;;2.30;0.50;;;;;;;26.74;23.63;101243.14;106111;1257;61287;-89
2023/05/06 08:20:26;;;;;;;5.30;1.70;;;;;;;26.70;23.72;101249.72;106031;1257;75632;-92
2023/05/06 08:22:54;;;;;;;4.40;1.00;;;;;;;26.74;23.75;101241.33;106728;1256;65111;-86
2023/05/06 08:25:20;;;;;;;1.00;0.90;;;;;;;26.90;24.25;101249.27;106348;1257;73541;-86
2023/05/06 08:27:47;;;;;;;2.70;1.80;;;;;;;27.13;23.73;101250.08;106032;1254;61139;-86
2023/05/06 08:30:14;;;;;;;2.00;1.30;;;;;;;27.22;23.59;101250.50;105864;1256;60514;-86
2023/05/06 08:32:42;;;;;;;4.70;1.10;;;;;;;27.25;23.58;101248.85;105823;1258;74925;-85
2023/05/06 08:35:09;;;;;;;1.90;1.00;;;;;;;27.37;23.54;101247.20;105811;1266;64819;-87
2023/05/06 08:37:36;;;;;;;2.90;0.70;;;;;;;27.48;23.00;101249.82;105956;1256;74335;-85
2023/05/06 08:40:04;;;;;;;1.20;0.80;;;;;;;27.62;23.18;101249.20;106013;1259;61066;-87
2023/05/06 08:42:31;;;;;;;2.60;1.40;;;;;;;27.68;22.97;101245.41;106051;1256;61293;-87
2023/05/06 08:44:58;;;;;;;1.90;1.70;;;;;;;27.76;23.04;101245.96;106010;1255;73757;-85
2023/05/06 08:47:25;;;;;;;0.60;0.40;;;;;;;27.88;23.29;101248.20;106398;1254;64721;-85
2023/05/06 08:49:52;;;;;;;2.60;0.50;;;;;;;28.07;23.53;101251.55;106709;1260;72633;-87
2023/05/06 08:52:20;;;;;;;3.20;2.50;;;;;;;28.27;23.37;101248.34;106979;1255;60629;-88
2023/05/06 08:54:50;;;;;;;6.60;0.80;;;;;;;28.29;22.98;101248.08;106719;1256;60447;-88
2023/05/06 08:57:19;;;;;;;4.50;0.90;;;;;;;28.33;22.64;101257.15;106197;1257;74470;-87
2023/05/06 08:59:46;;;;;;;2.60;1.70;;;;;;;28.30;21.91;101255.64;106216;1256;63646;-88
2023/05/06 09:02:12;;;;;;;4.20;1.30;;;;;;;28.11;22.20;101259.39;106076;1258;72876;-86
2023/05/06 09:04:39;;;;;;;3.50;0.80;;;;;;;27.99;22.83;101256.87;106009;1255;60989;-87
2023/05/06 09:07:06;;;;;;;1.20;1.10;;;;;;;27.97;22.66;101253.11;106212;1256;61333;-89
2023/05/06 09:09:33;;;;;;;3.50;1.50;;;;;;;28.04;22.98;101259.52;106042;1261;73958;-88
2023/05/06 09:12:00;;;;;;;4.40;2.50;;;;;;;27.99;22.49;101257.53;105984;1257;64087;-90
2023/05/06 09:14:27;;;;;;;1.50;0.90;;;;;;;27.69;22.06;101265.57;106160;1254;73619;-85
2023/05/06 09:16:54;;;;;;;2.80;0.60;;;;;;;27.49;22.88;101265.38;106009;1256;60661;-88
2023/05/06 09:19:22;;;;;;;5.50;1.30;;;;;;;27.50;23.02;101262.11;105967;1254;61363;-88
2023/05/06 09:21:50;;;;;;;4.40;1.50;;;;;;;27.59;22.70;101258.95;106201;1254;74644;-88
2023/05/06 09:24:17;;;;;;;3.20;0.80;;;;;;;27.49;22.40;101265.29;106027;1254;63654;-88
2023/05/06 09:26:44;;;;;;;0.90;0.90;;;;;;;27.41;22.95;101259.34;106171;1255;72700;-88
2023/05/06 09:29:11;;;;;;;2.80;1.20;;;;;;;27.51;22.74;101260.47;106184;1257;61363;-88
2023/05/06 09:31:40;;;;;;;1.70;1.00;;;;;;;27.59;21.81;101259.98;106706;1254;60422;-89
2023/05/06 09:34:07;;;;;;;1.50;0.60;;;;;;;27.37;21.54;101261.56;107103;1254;74871;-86
2023/05/06 09:36:36;;;;;;;1.90;0.80;;;;;;;27.24;21.86;101257.26;106392;1257;64875;-86
2023/05/06 09:39:03;;;;;;;1.80;1.20;;;;;;;27.35;21.54;101256.08;106551;1254;72627;-87
2023/05/06 09:41:30;;;;;;;1.30;1.10;;;;;;;27.49;21.40;101256.71;106446;1253;60469;-87
2023/05/06 09:43:58;;;;;;;1.90;0.80;;;;;;;27.61;21.58;101253.83;106047;1259;60591;-85
2023/05/06 09:46:28;;;;;;;3.60;0.90;;;;;;;27.69;21.42;101253.73;106515;1254;75130;-86
2023/05/06 09:48:57;;;;;;;1.30;1.20;;;;;;;27.67;22.04;101252.19;106234;1254;64213;-88
2023/05/06 09:51:25;;;;;;;3.00;1.20;;;;;;;27.63;22.29;101247.42;106406;1255;72664;-87
2023/05/06 09:53:51;;;;;;;1.80;1.00;;;;;;;27.52;21.99;101246.64;106094;1254;60549;-88
2023/05/06 09:56:18;;;;;;;1.70;0.90;;;;;;;27.24;22.74;101247.84;107082;1257;61234;-86
2023/05/06 09:58:46;;;;;;;4.50;1.10;;;;;;;27.09;23.05;101247.03;106813;1257;74922;-85
2023/05/06 10:01:14;;;;;;;4.10;1.20;;;;;;;27.01;23.44;101247.08;106290;1258;64546;-87
2023/05/06 10:03:55;;;;;;;2.80;1.30;;;;;;;27.10;23.68;101247.02;106315;1254;72809;-89
2023/05/06 10:06:23;;;;;;;1.30;0.80;;;;;;;27.11;23.66;101246.89;105893;1254;62037;-91
2023/05/06 10:08:51;;;;;;;4.30;1.80;;;;;;;27.19;23.47;101240.63;106330;1255;60745;-88
2023/05/06 10:11:19;;;;;;;1.90;1.40;;;;;;;27.22;23.17;101242.46;106710;1254;75050;-84
2023/05/06 10:13:46;;;;;;;1.60;1.10;;;;;;;27.15;23.79;101242.64;106039;1255;64357;-88
2023/05/06 10:16:13;;;;;;;2.80;1.20;;;;;;;27.04;23.56;101241.25;106199;1255;74125;-92
2023/05/06 10:18:42;;;;;;;7.80;1.50;;;;;;;26.88;23.53;101244.52;106245;1259;61406;-89
2023/05/06 10:21:16;;;;;;;5.80;0.80;;;;;;;26.57;23.24;101240.56;106247;1254;60578;-88
2023/05/06 10:23:47;;;;;;;1.60;0.80;;;;;;;26.40;23.93;101241.54;106556;1254;75173;-90
2023/05/06 10:26:15;;;;;;;2.10;0.80;;;;;;;26.25;23.63;101233.83;106676;1254;63786;-91
2023/05/06 10:28:43;;;;;;;2.20;1.10;;;;;;;25.68;23.73;101241.86;107019;1257;74172;-88
2023/05/06 10:31:11;;;;;;;2.10;1.10;;;;;;;25.10;24.68;101253.38;106169;1257;61310;-88
2023/05/06 10:33:45;;;;;;;1.90;1.30;;;;;;;24.99;25.77;101255.57;106379;1257;60854;-89
2023/05/06 10:36:20;;;;;;;6.00;1.20;;;;;;;25.15;24.81;101248.30;106885;1257;73871;-89
2023/05/06 10:38:55;;;;;;;2.20;0.80;;;;;;;25.27;25.06;101244.09;106454;1259;63777;-88
2023/05/06 10:41:23;;;;;;;3.00;0.90;;;;;;;25.46;24.73;101242.38;107226;1254;72602;-90
2023/05/06 10:43:55;;;;;;;1.20;1.10;;;;;;;25.61;24.54;101239.75;107403;1254;60397;-85
2023/05/06 10:46:24;;;;;;;2.70;1.40;;;;;;;25.86;24.61;101231.17;106950;1254;61255;-86
2023/05/06 10:49:10;;;;;;;4.10;1.10;;;;;;;26.08;25.09;101241.18;106780;1258;75070;-88
2023/05/06 10:51:45;;;;;;;7.60;1.20;;;;;;;26.06;23.30;101236.02;106444;1254;64633;-87
2023/05/06 10:54:19;;;;;;;5.40;1.20;;;;;;;25.75;23.56;101244.62;106284;1254;72809;-90
2023/05/06 10:56:49;;;;;;;3.00;1.10;;;;;;;25.57;24.03;101243.20;106612;1257;61917;-88
2023/05/06 10:59:20;;;;;;;2.00;0.80;;;;;;;25.63;24.09;101244.31;106541;1254;60540;-88
2023/05/06 11:01:56;;;;;;;2.40;0.70;;;;;;;25.78;24.28;101235.39;107286;1254;74153;-89
2023/05/06 11:04:23;;;;;;;2.90;1.10;;;;;;;25.89;23.57;101234.11;107450;1260;64584;-88
2023/05/06 11:06:51;;;;;;;0.70;0.70;;;;;;;25.98;23.86;101237.70;106107;1257;72498;-87
2023/05/06 11:09:22;;;;;;;1.50;0.60;;;;;;;26.14;24.24;101231.50;105929;1258;61242;-89
2023/05/06 11:12:00;;;;;;;1.10;1.00;;;;;;;26.21;23.96;101233.96;105984;1254;60370;-88
2023/05/06 11:14:34;;;;;;;2.60;0.90;;;;;;;26.30;24.16;101232.19;107325;1256;75091;-89
2023/05/06 11:17:06;;;;;;;1.30;0.60;;;;;;;26.48;24.57;101233.30;106329;1256;64337;-87
2023/05/06 11:19:37;;;;;;;3.60;1.30;;;;;;;26.61;23.90;101230.27;106446;1254;73769;-90
2023/05/06 11:22:05;;;;;;;3.30;1.00;;;;;;;26.64;23.75;101231.24;106107;1258;60553;-91
2023/05/06 11:24:41;;;;;;;5.10;0.90;;;;;;;26.34;23.08;101227.52;106172;1253;61096;-88